Sheffield Square, Vermont
Current Conditions -  °F | °C
As of 8:35 PM on Thursday 18 Dec 2014 (Local Time) from KCDA Reporting Station
Unknown Precip Unknown Precip  
Wind Chill: 21°   Ceiling: 1300
Heat Index: 28°   Visibility: 4mi
Dew Point: 24°   Wind: 7mph
Humidity: 85%   Direction: 280°W
Pressure: 29.85"   Gusts: NA
Location:  44.6401°N, 72.1245°W
Report Text: KCDA 190135Z AUTO 28006KT 4SM UP OVC013 M02/M04 A2985 RMK AO2 T10201042
Loading
Personal Weather Stations






























Interactive Weather Map New forecast layout! Learn more

10-Day Weather Forecast

Advertisements
Track Severe Weather on mobile